Time;durP1;ratioP1;P1;durP2;ratioP2;P2;SDS_P1;SDS_P2;PMS_P1;PMS_P2;Temp;Humidity;BMP_temperature;BMP_pressure;BME280_temperature;BME280_humidity;BME280_pressure;Samples;Min_cycle;Max_cycle;Signal;HPM_P1;HPM_P2
2023/02/06 00:00:45;;;;;;;15.38;7.72;;;4.20;92.70;;;;;;5119584;27;20251;-70
2023/02/06 00:03:13;;;;;;;13.30;7.40;;;4.20;92.60;;;;;;5134003;27;20269;-71
2023/02/06 00:05:42;;;;;;;12.88;8.80;;;4.20;92.60;;;;;;5134153;27;20664;-70
2023/02/06 00:08:20;;;;;;;12.82;7.80;;;4.20;92.60;;;;;;5134101;27;20294;-70
2023/02/06 00:10:56;;;;;;;10.48;7.82;;;4.20;92.50;;;;;;5133040;27;20179;-70
2023/02/06 00:13:32;;;;;;;15.35;9.25;;;4.20;92.50;;;;;;5134270;27;20270;-70
2023/02/06 00:16:08;;;;;;;17.23;8.35;;;4.20;92.50;;;;;;5133494;27;20283;-70
2023/02/06 00:18:36;;;;;;;13.35;7.93;;;4.20;92.50;;;;;;5134033;27;20675;-70
2023/02/06 00:21:13;;;;;;;13.18;8.32;;;4.20;92.40;;;;;;5133126;27;20179;-71
2023/02/06 00:23:42;;;;;;;12.43;8.75;;;4.20;92.40;;;;;;5134145;27;20188;-71
2023/02/06 00:26:09;;;;;;;17.10;9.27;;;4.20;92.30;;;;;;5133627;27;20191;-70
2023/02/06 00:28:37;;;;;;;17.42;8.95;;;4.20;92.20;;;;;;5133935;27;20191;-71
2023/02/06 00:31:06;;;;;;;13.32;7.72;;;4.20;92.30;;;;;;5132975;27;20188;-71
2023/02/06 00:33:41;;;;;;;13.68;8.35;;;4.20;92.20;;;;;;5133694;27;20192;-70
2023/02/06 00:36:13;;;;;;;11.75;7.47;;;4.20;92.30;;;;;;5133099;27;20557;-70
2023/02/06 00:38:49;;;;;;;15.77;8.48;;;4.10;92.40;;;;;;5133622;27;20627;-70
2023/02/06 00:41:24;;;;;;;15.32;8.35;;;4.10;92.60;;;;;;5132951;27;20191;-70
2023/02/06 00:43:53;;;;;;;10.18;7.55;;;4.10;92.70;;;;;;5133184;27;20272;-70
2023/02/06 00:46:27;;;;;;;16.70;6.68;;;4.10;92.80;;;;;;5133061;27;20195;-70
2023/02/06 00:48:56;;;;;;;14.23;9.85;;;4.10;92.90;;;;;;5133488;27;20259;-70
2023/02/06 00:51:25;;;;;;;14.88;8.02;;;4.10;92.80;;;;;;5133036;27;20195;-70
2023/02/06 00:53:55;;;;;;;11.57;7.50;;;4.10;92.80;;;;;;5133327;27;20191;-70
2023/02/06 00:56:31;;;;;;;13.55;7.90;;;4.10;92.90;;;;;;5132535;27;20530;-71
2023/02/06 00:58:59;;;;;;;15.90;8.15;;;4.10;92.90;;;;;;5133140;27;20222;-71
2023/02/06 01:01:27;;;;;;;11.27;6.82;;;4.10;93.00;;;;;;5132765;27;20224;-70
2023/02/06 01:03:58;;;;;;;14.38;8.30;;;4.10;92.80;;;;;;5133213;27;20210;-71
2023/02/06 01:06:27;;;;;;;16.02;9.02;;;4.10;92.90;;;;;;5132386;27;20241;-70
2023/02/06 01:08:57;;;;;;;13.75;7.07;;;4.10;92.90;;;;;;5131802;27;20214;-71
2023/02/06 01:11:29;;;;;;;13.38;8.27;;;4.20;93.00;;;;;;5132137;27;20219;-71
2023/02/06 01:14:00;;;;;;;12.40;7.63;;;4.20;92.90;;;;;;5132608;27;20220;-71
2023/02/06 01:16:32;;;;;;;16.80;8.95;;;4.20;92.80;;;;;;5132948;27;20226;-70
2023/02/06 01:19:02;;;;;;;12.70;7.63;;;4.20;92.90;;;;;;5132234;27;20188;-71
2023/02/06 01:21:35;;;;;;;10.15;7.22;;;4.20;93.20;;;;;;5132910;27;20190;-71
2023/02/06 01:24:07;;;;;;;23.02;8.63;;;4.20;92.90;;;;;;5132751;27;20184;-71
2023/02/06 01:26:40;;;;;;;15.48;8.10;;;4.10;92.80;;;;;;5132516;27;20192;-71
2023/02/06 01:29:07;;;;;;;12.27;7.88;;;4.10;92.90;;;;;;5131490;27;20579;-72
2023/02/06 01:31:35;;;;;;;14.65;8.55;;;4.10;93.00;;;;;;5132774;27;20191;-70
2023/02/06 01:34:15;;;;;;;11.45;8.45;;;4.10;92.90;;;;;;5132318;27;20188;-70
2023/02/06 01:36:54;;;;;;;10.50;7.70;;;4.10;93.00;;;;;;5132633;27;20303;-71
2023/02/06 01:39:27;;;;;;;13.38;7.72;;;4.10;93.10;;;;;;5131926;27;20218;-70
2023/02/06 01:41:59;;;;;;;12.48;8.10;;;4.00;93.10;;;;;;5132662;27;20599;-70
2023/02/06 01:44:27;;;;;;;12.77;8.52;;;4.00;93.10;;;;;;5132327;27;20176;-70
2023/02/06 01:46:59;;;;;;;17.35;7.57;;;4.00;93.20;;;;;;5132621;27;20637;-70
2023/02/06 01:49:31;;;;;;;12.00;7.72;;;4.00;93.20;;;;;;5132294;27;20191;-70
2023/02/06 01:52:09;;;;;;;11.35;6.60;;;4.00;93.20;;;;;;5132862;27;20195;-69
2023/02/06 01:54:37;;;;;;;10.95;7.32;;;4.00;93.20;;;;;;5132524;27;20209;-70
2023/02/06 01:57:12;;;;;;;12.35;8.50;;;4.10;93.10;;;;;;5132214;27;20299;-70
2023/02/06 01:59:46;;;;;;;10.45;7.07;;;4.00;93.10;;;;;;5131973;27;20194;-70
2023/02/06 02:05:11;;;;;;;15.43;10.50;;;4.10;93.20;;;;;;5131697;27;20180;-70
2023/02/06 02:07:46;;;;;;;17.10;9.05;;;4.10;93.00;;;;;;5132026;27;20198;-70
2023/02/06 02:10:30;;;;;;;15.38;10.43;;;4.00;92.80;;;;;;5131622;28;20266;-71
2023/02/06 02:13:02;;;;;;;16.85;10.90;;;4.10;92.70;;;;;;5131934;27;20206;-71
2023/02/06 02:15:47;;;;;;;17.40;11.27;;;4.00;92.50;;;;;;5131606;27;20187;-70
2023/02/06 02:18:37;;;;;;;15.25;11.60;;;4.10;92.30;;;;;;5132527;27;20186;-70
2023/02/06 02:21:46;;;;;;;15.93;10.60;;;4.00;91.90;;;;;;5136274;27;20222;-71
2023/02/06 02:24:23;;;;;;;17.50;11.02;;;4.00;92.10;;;;;;5135585;27;20180;-73
2023/02/06 02:27:32;;;;;;;17.38;11.55;;;4.00;92.10;;;;;;5136238;27;20289;-71
2023/02/06 02:30:46;;;;;;;15.40;11.35;;;3.90;92.00;;;;;;5124285;27;20191;-70
2023/02/06 02:33:37;;;;;;;14.98;10.20;;;3.90;92.10;;;;;;5135949;27;20188;-70
2023/02/06 02:36:14;;;;;;;17.92;10.77;;;3.90;92.20;;;;;;5097962;27;20212;-70
2023/02/06 02:38:53;;;;;;;12.70;10.13;;;3.90;91.80;;;;;;5135397;27;20214;-71
2023/02/06 02:41:39;;;;;;;16.70;11.23;;;3.90;91.70;;;;;;5135507;27;20532;-70
2023/02/06 02:44:10;;;;;;;14.40;10.65;;;3.90;91.60;;;;;;5135553;27;20248;-70
2023/02/06 02:46:43;;;;;;;14.18;10.23;;;3.90;91.50;;;;;;5135877;27;20660;-69
2023/02/06 02:49:17;;;;;;;17.60;10.82;;;3.90;91.40;;;;;;5135293;27;20188;-69
2023/02/06 02:51:48;;;;;;;16.38;11.48;;;3.90;91.50;;;;;;5134569;27;20183;-69
2023/02/06 02:54:20;;;;;;;15.50;10.48;;;3.90;91.40;;;;;;5135411;27;20187;-70
2023/02/06 02:56:48;;;;;;;17.63;12.50;;;3.80;91.50;;;;;;5134405;27;20215;-70
2023/02/06 02:59:22;;;;;;;17.33;12.57;;;3.80;91.50;;;;;;5134698;27;20270;-70
2023/02/06 03:02:02;;;;;;;19.38;12.00;;;3.80;91.40;;;;;;5134982;27;20192;-70
2023/02/06 03:04:35;;;;;;;18.52;11.07;;;3.80;91.50;;;;;;5135118;27;20214;-70
2023/02/06 03:07:22;;;;;;;14.93;12.48;;;3.80;91.40;;;;;;5114955;28;20305;-69
2023/02/06 03:10:03;;;;;;;13.93;10.20;;;3.80;91.20;;;;;;5118231;27;20180;-69
2023/02/06 03:12:39;;;;;;;14.82;10.52;;;3.80;91.10;;;;;;5133622;27;20247;-70
2023/02/06 03:15:23;;;;;;;11.45;10.15;;;3.80;91.10;;;;;;5134906;27;20243;-70
2023/02/06 03:18:01;;;;;;;16.40;11.32;;;3.70;91.10;;;;;;5133598;27;20211;-70
2023/02/06 03:20:31;;;;;;;17.85;11.40;;;3.70;91.30;;;;;;5134386;27;20180;-70
2023/02/06 03:23:02;;;;;;;16.95;11.10;;;3.80;91.30;;;;;;5134637;27;20180;-70
2023/02/06 03:25:36;;;;;;;16.80;11.63;;;3.70;91.50;;;;;;5135022;27;20191;-70
2023/02/06 03:28:16;;;;;;;14.48;10.85;;;3.70;91.50;;;;;;5135034;27;20198;-70
2023/02/06 03:30:46;;;;;;;16.40;10.55;;;3.70;91.40;;;;;;5133590;27;20180;-70
2023/02/06 03:33:17;;;;;;;18.88;11.75;;;3.60;91.40;;;;;;5134548;27;20198;-70
2023/02/06 03:35:45;;;;;;;16.13;11.23;;;3.60;91.40;;;;;;5135009;27;20279;-69
2023/02/06 03:38:15;;;;;;;13.43;9.65;;;3.60;91.40;;;;;;5133744;27;20645;-70
2023/02/06 03:41:04;;;;;;;15.80;10.93;;;3.60;91.30;;;;;;5134380;27;20194;-70
2023/02/06 03:43:36;;;;;;;14.63;10.80;;;3.60;91.10;;;;;;5134299;27;20192;-70
2023/02/06 03:46:11;;;;;;;12.98;10.98;;;3.60;90.90;;;;;;5134707;27;20755;-70
2023/02/06 03:48:43;;;;;;;17.88;11.90;;;3.60;90.80;;;;;;5134098;27;20187;-70
2023/02/06 03:51:21;;;;;;;18.38;13.15;;;3.60;90.80;;;;;;5134175;27;20180;-70
2023/02/06 03:54:01;;;;;;;16.50;11.07;;;3.60;90.60;;;;;;5132327;27;20278;-70
2023/02/06 03:56:35;;;;;;;16.15;12.85;;;3.60;90.50;;;;;;5134229;27;20580;-70
2023/02/06 03:59:07;;;;;;;14.02;10.85;;;3.50;90.40;;;;;;5132957;27;20184;-70
2023/02/06 04:01:42;;;;;;;13.45;9.50;;;3.50;90.40;;;;;;5134031;27;20210;-71
2023/02/06 04:04:16;;;;;;;13.30;11.15;;;3.50;90.50;;;;;;5133550;27;20187;-70
2023/02/06 04:06:47;;;;;;;15.10;10.73;;;3.50;90.60;;;;;;5134101;27;20191;-70
2023/02/06 04:09:16;;;;;;;12.48;11.18;;;3.40;90.30;;;;;;5133918;27;20717;-70
2023/02/06 04:11:49;;;;;;;16.80;10.85;;;3.40;90.30;;;;;;5133785;27;20291;-70
2023/02/06 04:14:19;;;;;;;16.02;11.90;;;3.40;90.40;;;;;;5132112;27;20213;-70
2023/02/06 04:16:51;;;;;;;16.65;11.65;;;3.30;90.30;;;;;;5133997;27;20219;-70
2023/02/06 04:19:23;;;;;;;18.58;10.93;;;3.30;90.30;;;;;;5133644;27;20187;-70
2023/02/06 04:21:56;;;;;;;16.02;10.30;;;3.30;90.30;;;;;;5133285;27;20218;-71
2023/02/06 04:24:25;;;;;;;14.15;10.93;;;3.30;90.20;;;;;;5132683;27;20243;-70
2023/02/06 04:26:58;;;;;;;14.18;10.73;;;3.30;90.30;;;;;;5133750;27;20192;-70
2023/02/06 04:29:31;;;;;;;14.80;10.90;;;3.20;90.10;;;;;;5133381;27;20645;-70
2023/02/06 04:32:03;;;;;;;13.85;9.60;;;3.20;90.10;;;;;;5133669;27;20719;-71
2023/02/06 04:34:32;;;;;;;14.20;10.30;;;3.20;90.00;;;;;;5133349;27;20198;-69
2023/02/06 04:37:05;;;;;;;13.38;10.35;;;3.20;90.10;;;;;;5133452;27;20257;-70
2023/02/06 04:39:38;;;;;;;18.23;10.60;;;3.20;90.10;;;;;;5133159;27;20229;-71
2023/02/06 04:42:18;;;;;;;17.10;11.10;;;3.20;90.00;;;;;;5132931;27;20183;-70
2023/02/06 04:44:46;;;;;;;14.60;10.73;;;3.20;90.30;;;;;;5131736;27;20191;-70
2023/02/06 04:47:14;;;;;;;15.90;10.25;;;3.20;90.20;;;;;;5133298;27;20191;-69
2023/02/06 04:49:46;;;;;;;11.90;10.05;;;3.20;90.10;;;;;;5133295;27;20290;-70
2023/02/06 04:52:19;;;;;;;16.30;11.90;;;3.20;90.10;;;;;;5132911;27;20328;-70
2023/02/06 04:54:51;;;;;;;14.32;9.98;;;3.20;89.50;;;;;;5133188;27;20309;-70
2023/02/06 04:57:19;;;;;;;15.55;12.13;;;3.20;89.50;;;;;;5132525;27;20255;-70
2023/02/06 04:59:47;;;;;;;14.57;10.32;;;3.20;89.00;;;;;;5133153;27;20211;-70
2023/02/06 05:02:20;;;;;;;15.00;11.90;;;3.20;88.70;;;;;;5132873;27;20215;-70
2023/02/06 05:04:47;;;;;;;18.50;9.35;;;3.10;88.40;;;;;;5133118;27;20202;-70
2023/02/06 05:07:26;;;;;;;14.20;11.07;;;3.10;88.80;;;;;;5132844;27;20560;-70
2023/02/06 05:09:55;;;;;;;15.27;9.82;;;3.10;88.80;;;;;;5133185;27;20191;-70
2023/02/06 05:12:23;;;;;;;15.85;11.05;;;3.10;88.90;;;;;;5132868;27;20211;-70
2023/02/06 05:14:58;;;;;;;16.05;10.82;;;3.10;89.20;;;;;;5132982;27;20300;-70
2023/02/06 05:17:26;;;;;;;15.80;11.18;;;3.10;89.30;;;;;;5131391;27;20215;-71
2023/02/06 05:19:56;;;;;;;15.82;10.00;;;3.00;88.60;;;;;;5133007;27;20195;-71
2023/02/06 05:22:28;;;;;;;16.42;11.35;;;3.00;88.80;;;;;;5132481;27;20199;-70
2023/02/06 05:24:59;;;;;;;12.23;9.68;;;3.00;88.90;;;;;;5132896;27;20690;-70
2023/02/06 05:27:37;;;;;;;13.82;10.73;;;2.90;89.10;;;;;;5132510;27;20758;-70
2023/02/06 05:30:06;;;;;;;15.98;10.98;;;3.00;88.80;;;;;;5132795;27;20182;-72
2023/02/06 05:32:38;;;;;;;11.73;9.85;;;3.00;88.10;;;;;;5132607;27;20639;-70
2023/02/06 05:35:08;;;;;;;17.63;10.57;;;2.90;87.30;;;;;;5132722;27;20209;-71
2023/02/06 05:37:52;;;;;;;13.95;10.20;;;2.90;87.10;;;;;;5111931;28;20321;-70
2023/02/06 05:40:25;;;;;;;14.98;10.40;;;2.80;87.50;;;;;;5114048;28;20200;-70
2023/02/06 05:42:53;;;;;;;13.50;10.32;;;2.80;87.50;;;;;;5131498;27;20186;-70
2023/02/06 05:45:28;;;;;;;12.93;10.13;;;2.80;87.70;;;;;;5131893;27;20594;-70
2023/02/06 05:47:55;;;;;;;12.80;9.63;;;2.70;87.40;;;;;;5132736;27;20189;-69
2023/02/06 05:50:23;;;;;;;15.27;10.25;;;2.70;87.30;;;;;;5131865;27;20295;-70
2023/02/06 05:52:56;;;;;;;13.20;10.80;;;2.60;86.70;;;;;;5132424;27;20234;-70
2023/02/06 05:55:26;;;;;;;13.70;10.77;;;2.60;86.70;;;;;;5135170;27;20274;-71
2023/02/06 05:58:07;;;;;;;15.07;10.75;;;2.50;87.00;;;;;;5136775;27;20226;-70
2023/02/06 06:00:38;;;;;;;14.50;11.55;;;2.50;87.40;;;;;;5136387;27;20236;-69
2023/02/06 06:03:13;;;;;;;13.90;9.80;;;2.50;87.70;;;;;;5136611;27;20199;-70
2023/02/06 06:05:41;;;;;;;15.57;10.43;;;2.40;86.80;;;;;;5136273;27;20556;-69
2023/02/06 06:08:13;;;;;;;13.55;9.70;;;2.30;86.30;;;;;;5136996;27;20196;-70
2023/02/06 06:10:43;;;;;;;12.40;9.80;;;2.30;86.60;;;;;;5135610;27;20192;-69
2023/02/06 06:13:12;;;;;;;18.40;11.98;;;2.30;86.80;;;;;;5132650;27;20194;-70
2023/02/06 06:15:42;;;;;;;15.52;11.10;;;2.20;86.60;;;;;;5133363;27;20901;-70
2023/02/06 06:18:10;;;;;;;13.93;9.52;;;2.20;86.30;;;;;;5134404;27;20313;-69
2023/02/06 06:20:43;;;;;;;13.98;10.35;;;2.10;86.20;;;;;;5134491;27;20534;-70
2023/02/06 06:23:13;;;;;;;13.10;8.63;;;2.10;86.40;;;;;;5130094;27;20594;-71
2023/02/06 06:25:43;;;;;;;14.57;11.55;;;2.00;85.80;;;;;;5133279;27;20202;-70
2023/02/06 06:28:10;;;;;;;13.85;9.63;;;2.00;85.80;;;;;;5133427;27;20697;-70
2023/02/06 06:30:38;;;;;;;13.65;10.18;;;1.90;86.10;;;;;;5133229;27;20208;-71
2023/02/06 06:33:10;;;;;;;13.88;10.25;;;1.90;86.60;;;;;;5131465;27;20204;-71
2023/02/06 06:35:41;;;;;;;15.77;10.60;;;1.80;87.20;;;;;;5134249;27;20571;-70
2023/02/06 06:38:10;;;;;;;17.20;10.50;;;1.80;87.50;;;;;;5132217;27;20226;-71
2023/02/06 06:40:38;;;;;;;16.42;10.75;;;1.70;87.80;;;;;;5133786;27;20195;-71
2023/02/06 06:43:07;;;;;;;11.88;8.93;;;1.70;87.80;;;;;;5132462;27;20194;-70
2023/02/06 06:45:37;;;;;;;14.95;9.90;;;1.70;87.80;;;;;;5133175;27;20238;-70
2023/02/06 06:48:09;;;;;;;14.35;8.95;;;1.60;87.80;;;;;;5132576;27;20244;-69
2023/02/06 06:50:46;;;;;;;14.43;9.23;;;1.60;87.20;;;;;;5132826;27;20223;-70
2023/02/06 06:53:21;;;;;;;17.30;9.13;;;1.60;86.40;;;;;;5129981;27;20189;-70
2023/02/06 06:55:56;;;;;;;37.65;20.58;;;1.60;86.50;;;;;;5132038;27;20276;-69
2023/02/06 06:58:26;;;;;;;35.38;18.52;;;1.60;86.20;;;;;;5132371;27;20221;-70
2023/02/06 07:00:57;;;;;;;14.55;10.05;;;1.60;86.10;;;;;;5133500;27;20198;-71
2023/02/06 07:03:27;;;;;;;13.77;10.40;;;1.60;86.30;;;;;;5133373;27;20684;-70
2023/02/06 07:06:03;;;;;;;14.80;10.65;;;1.70;85.70;;;;;;5133235;27;20204;-70
2023/02/06 07:08:44;;;;;;;12.55;10.18;;;1.80;85.60;;;;;;5133153;27;20247;-70
2023/02/06 07:11:15;;;;;;;13.93;9.57;;;1.90;84.90;;;;;;5132886;27;20328;-70
2023/02/06 07:13:45;;;;;;;13.63;10.27;;;2.00;83.80;;;;;;5133289;27;20271;-69
2023/02/06 07:16:15;;;;;;;15.43;11.07;;;2.00;84.00;;;;;;5132375;27;20186;-70
2023/02/06 07:18:43;;;;;;;15.10;10.45;;;2.10;85.50;;;;;;5132710;27;20679;-69
2023/02/06 07:21:14;;;;;;;16.67;11.45;;;2.30;86.00;;;;;;5133154;27;20595;-71
2023/02/06 07:23:42;;;;;;;11.63;9.10;;;2.50;86.20;;;;;;5132282;27;20198;-70
2023/02/06 07:26:09;;;;;;;12.85;9.85;;;2.70;84.30;;;;;;5129955;27;20198;-72
2023/02/06 07:28:37;;;;;;;14.52;10.57;;;2.80;83.30;;;;;;5133163;27;20195;-70
2023/02/06 07:31:08;;;;;;;18.98;13.65;;;2.90;82.20;;;;;;5132969;27;20256;-70
2023/02/06 07:33:36;;;;;;;18.98;12.60;;;3.10;82.50;;;;;;5129184;27;20199;-70
2023/02/06 07:36:05;;;;;;;15.68;12.60;;;3.30;83.10;;;;;;5133109;27;20488;-70
2023/02/06 07:38:35;;;;;;;19.55;12.02;;;3.50;81.90;;;;;;5131825;27;20218;-70
2023/02/06 07:41:03;;;;;;;15.10;12.43;;;3.70;80.90;;;;;;5128746;27;20278;-70
2023/02/06 07:43:34;;;;;;;16.50;13.63;;;3.90;81.10;;;;;;5132761;27;20209;-70
2023/02/06 07:46:06;;;;;;;21.08;13.18;;;4.10;80.10;;;;;;5132630;27;20187;-70
2023/02/06 07:48:34;;;;;;;20.52;13.20;;;4.40;79.30;;;;;;5128561;27;20183;-70
2023/02/06 07:51:06;;;;;;;22.20;13.50;;;4.60;78.60;;;;;;5132639;27;20206;-70
2023/02/06 07:53:39;;;;;;;17.00;14.80;;;4.80;77.50;;;;;;5132291;27;20271;-71
2023/02/06 07:56:14;;;;;;;18.83;14.30;;;5.00;77.60;;;;;;5132814;27;20196;-70
2023/02/06 07:58:46;;;;;;;18.67;14.13;;;5.10;76.20;;;;;;5131360;27;20349;-70
2023/02/06 08:01:15;;;;;;;17.80;12.57;;;5.30;75.20;;;;;;5130757;27;20263;-70
2023/02/06 08:03:43;;;;;;;18.13;12.30;;;5.40;74.70;;;;;;5130696;27;20678;-69
2023/02/06 08:06:12;;;;;;;18.63;13.88;;;5.60;74.20;;;;;;5131361;27;20202;-70
2023/02/06 08:08:39;;;;;;;20.20;16.10;;;5.70;72.80;;;;;;5131390;27;20544;-70
2023/02/06 08:11:10;;;;;;;20.92;14.10;;;6.00;73.60;;;;;;5129950;27;20216;-71
2023/02/06 08:13:37;;;;;;;19.60;14.40;;;6.30;73.80;;;;;;5134033;27;20210;-70
2023/02/06 08:16:06;;;;;;;17.75;14.45;;;6.30;72.30;;;;;;5133699;27;20270;-70
2023/02/06 08:18:35;;;;;;;17.52;14.65;;;6.20;71.50;;;;;;5134139;27;20594;-71
2023/02/06 08:21:03;;;;;;;17.23;13.65;;;6.00;71.40;;;;;;5134068;27;20223;-70
2023/02/06 08:23:41;;;;;;;17.95;13.57;;;5.70;71.70;;;;;;5134287;27;20274;-71
2023/02/06 08:26:10;;;;;;;17.65;13.85;;;5.50;71.60;;;;;;5133419;27;20270;-70
2023/02/06 08:28:38;;;;;;;18.20;14.15;;;5.40;72.30;;;;;;5134024;27;20345;-70
2023/02/06 08:31:10;;;;;;;20.25;13.65;;;5.20;72.50;;;;;;5133946;27;20279;-72
2023/02/06 08:33:38;;;;;;;18.02;12.93;;;5.00;73.10;;;;;;5133973;27;20215;-70
2023/02/06 08:36:06;;;;;;;20.55;13.80;;;4.80;74.30;;;;;;5133364;27;20609;-71
2023/02/06 08:38:34;;;;;;;17.25;13.40;;;4.80;74.80;;;;;;5134189;27;20708;-70
2023/02/06 08:41:01;;;;;;;17.52;13.82;;;4.60;74.90;;;;;;5133780;27;20191;-71
2023/02/06 08:43:28;;;;;;;21.67;14.70;;;4.50;75.20;;;;;;5133719;27;20282;-71
2023/02/06 08:45:58;;;;;;;20.27;15.10;;;4.50;76.00;;;;;;5133722;27;20279;-71
2023/02/06 08:48:25;;;;;;;17.00;13.68;;;4.40;76.20;;;;;;5134176;27;20200;-70
2023/02/06 08:51:02;;;;;;;18.10;13.52;;;4.30;76.70;;;;;;5131949;27;20192;-72
2023/02/06 08:53:29;;;;;;;18.05;14.65;;;4.30;77.30;;;;;;5130313;27;20665;-72
2023/02/06 08:55:59;;;;;;;18.80;14.10;;;4.20;77.10;;;;;;5132197;27;20219;-70
2023/02/06 08:58:26;;;;;;;16.77;13.27;;;4.20;77.70;;;;;;5130906;27;20304;-70
2023/02/06 09:00:53;;;;;;;21.02;14.30;;;4.10;77.20;;;;;;5131400;27;20304;-71
2023/02/06 09:03:21;;;;;;;19.67;15.45;;;4.10;77.50;;;;;;5132054;27;20207;-70
2023/02/06 09:05:49;;;;;;;18.52;12.85;;;4.10;77.90;;;;;;5128700;27;20671;-70
2023/02/06 09:08:17;;;;;;;19.30;14.23;;;4.10;77.70;;;;;;5132270;27;20215;-70
2023/02/06 09:10:44;;;;;;;20.25;14.13;;;4.10;78.30;;;;;;5132046;27;20276;-70
2023/02/06 09:13:11;;;;;;;17.85;13.35;;;4.00;77.90;;;;;;5131654;27;20187;-70
2023/02/06 09:15:38;;;;;;;26.52;17.25;;;4.00;78.00;;;;;;5131367;27;20245;-71
2023/02/06 09:18:05;;;;;;;17.00;13.35;;;3.90;79.00;;;;;;5131487;27;20236;-70
2023/02/06 09:20:32;;;;;;;22.23;15.20;;;3.90;78.70;;;;;;5130811;27;20187;-70
2023/02/06 09:22:59;;;;;;;16.15;11.75;;;3.90;77.50;;;;;;5131916;27;20283;-71
2023/02/06 09:25:28;;;;;;;18.05;12.18;;;3.90;75.70;;;;;;5131751;27;20278;-70
2023/02/06 09:27:55;;;;;;;15.93;12.90;;;3.90;76.10;;;;;;5128579;27;20528;-71
2023/02/06 09:30:22;;;;;;;14.00;11.07;;;4.00;75.90;;;;;;5131953;27;20278;-71
2023/02/06 09:32:49;;;;;;;19.25;13.73;;;4.00;75.20;;;;;;5131895;27;20286;-70
2023/02/06 09:35:16;;;;;;;19.42;14.45;;;4.10;74.40;;;;;;5128447;27;20266;-70
2023/02/06 09:37:43;;;;;;;14.02;12.23;;;4.20;73.80;;;;;;5131691;27;20202;-70
2023/02/06 09:40:13;;;;;;;21.08;13.73;;;4.40;73.60;;;;;;5131827;27;20219;-71
2023/02/06 09:42:42;;;;;;;18.40;12.70;;;4.50;73.10;;;;;;5131397;27;20230;-71
2023/02/06 09:45:14;;;;;;;14.63;11.77;;;4.60;72.60;;;;;;5131590;27;20240;-70
2023/02/06 09:47:45;;;;;;;19.63;14.05;;;4.70;72.00;;;;;;5130201;27;20620;-70
2023/02/06 09:50:23;;;;;;;13.18;11.77;;;5.10;72.10;;;;;;5128275;28;20324;-70
2023/02/06 09:53:13;;;;;;;14.90;10.02;;;5.50;71.80;;;;;;5130975;27;20200;-70
2023/02/06 09:55:44;;;;;;;14.38;9.35;;;5.90;70.50;;;;;;5130386;27;20212;-70
2023/02/06 09:58:22;;;;;;;11.35;9.02;;;6.10;65.80;;;;;;5131383;27;20256;-70
2023/02/06 10:00:53;;;;;;;17.23;9.80;;;6.10;65.40;;;;;;5129143;28;20715;-70
2023/02/06 10:03:47;;;;;;;13.18;10.07;;;6.00;66.40;;;;;;5130426;28;20215;-70
2023/02/06 10:06:20;;;;;;;15.65;11.63;;;6.00;64.20;;;;;;5129540;28;20287;-70
2023/02/06 10:08:55;;;;;;;13.15;9.68;;;5.80;63.80;;;;;;5129440;27;20643;-70
2023/02/06 10:11:33;;;;;;;14.18;10.90;;;5.70;63.80;;;;;;5129828;28;20258;-71
2023/02/06 10:14:05;;;;;;;17.75;10.50;;;5.60;65.20;;;;;;5126071;28;20279;-70
2023/02/06 10:16:40;;;;;;;16.90;12.35;;;5.60;66.40;;;;;;5131439;27;20256;-70
2023/02/06 10:19:14;;;;;;;14.25;11.35;;;5.60;66.40;;;;;;5130868;27;20305;-73
2023/02/06 10:21:48;;;;;;;14.95;10.05;;;5.50;65.40;;;;;;5131275;27;20317;-70
2023/02/06 10:24:23;;;;;;;13.15;10.43;;;5.60;65.30;;;;;;5131303;28;20241;-70
2023/02/06 10:26:52;;;;;;;16.25;11.52;;;5.60;65.70;;;;;;5130684;27;20223;-74
2023/02/06 10:29:24;;;;;;;15.43;10.82;;;5.70;65.20;;;;;;5128987;27;20215;-70
2023/02/06 10:32:07;;;;;;;19.95;13.82;;;5.80;66.20;;;;;;5130333;27;20283;-71
2023/02/06 10:35:07;;;;;;;13.73;10.50;;;5.90;65.20;;;;;;5130174;28;20215;-70
2023/02/06 10:38:07;;;;;;;10.00;9.00;;;5.90;63.90;;;;;;5128142;27;20191;-70
2023/02/06 10:40:44;;;;;;;9.68;8.30;;;5.90;62.90;;;;;;5126048;27;20243;-70
2023/02/06 10:43:21;;;;;;;10.07;8.55;;;5.80;63.00;;;;;;5134378;27;20272;-70
2023/02/06 10:45:57;;;;;;;10.65;8.60;;;5.60;62.40;;;;;;5133536;27;20282;-70
2023/02/06 10:48:31;;;;;;;12.43;8.85;;;5.50;61.20;;;;;;5134732;27;20210;-70
2023/02/06 10:51:08;;;;;;;15.63;10.77;;;5.50;62.60;;;;;;5135147;27;20245;-70
2023/02/06 10:53:39;;;;;;;13.75;9.10;;;5.50;63.00;;;;;;5133158;27;20323;-70
2023/02/06 10:56:10;;;;;;;12.82;9.18;;;5.40;63.30;;;;;;5134442;27;20223;-70
2023/02/06 10:58:40;;;;;;;16.08;9.82;;;5.40;63.40;;;;;;5134771;27;20196;-70
2023/02/06 11:01:11;;;;;;;12.90;10.05;;;5.40;64.20;;;;;;5132662;27;20278;-71
2023/02/06 11:03:45;;;;;;;12.73;9.85;;;5.40;63.20;;;;;;5134631;27;20646;-70
2023/02/06 11:06:15;;;;;;;14.15;9.80;;;5.30;64.10;;;;;;5133297;27;20634;-70
2023/02/06 11:08:45;;;;;;;11.82;9.48;;;5.30;63.80;;;;;;5134339;27;20286;-71
2023/02/06 11:11:21;;;;;;;13.18;9.25;;;5.40;63.20;;;;;;5133089;27;20262;-70
2023/02/06 11:13:50;;;;;;;13.52;8.98;;;5.40;64.80;;;;;;5132407;27;20196;-70
2023/02/06 11:16:24;;;;;;;11.02;8.63;;;5.50;64.80;;;;;;5133814;27;20274;-71
2023/02/06 11:18:52;;;;;;;11.23;9.32;;;5.50;64.40;;;;;;5130869;27;20698;-70
2023/02/06 11:21:46;;;;;;;10.90;8.38;;;5.50;64.00;;;;;;5133279;27;20282;-71
2023/02/06 11:24:15;;;;;;;13.35;9.98;;;5.50;63.00;;;;;;5132792;27;20204;-70
2023/02/06 11:26:43;;;;;;;14.95;9.40;;;5.40;62.60;;;;;;5133847;27;20662;-70
2023/02/06 11:29:16;;;;;;;14.75;10.30;;;5.40;62.80;;;;;;5133399;27;20630;-70
2023/02/06 11:31:48;;;;;;;10.73;9.43;;;5.40;64.90;;;;;;5132618;27;20187;-70
2023/02/06 11:34:26;;;;;;;11.95;9.52;;;5.30;63.70;;;;;;5132748;27;20649;-70
2023/02/06 11:36:57;;;;;;;13.45;10.20;;;5.30;63.00;;;;;;5132218;27;20624;-70
2023/02/06 11:39:30;;;;;;;10.48;7.72;;;5.30;63.90;;;;;;5131788;27;20590;-70
2023/02/06 11:41:59;;;;;;;11.20;9.35;;;5.30;64.90;;;;;;5132722;27;20279;-71
2023/02/06 11:44:28;;;;;;;9.82;7.07;;;5.30;65.30;;;;;;5130231;27;20313;-69
2023/02/06 11:46:56;;;;;;;10.20;7.85;;;5.30;65.60;;;;;;5131949;27;20198;-70
2023/02/06 11:49:27;;;;;;;11.52;8.45;;;5.30;64.60;;;;;;5131111;27;20195;-70
2023/02/06 11:51:58;;;;;;;15.15;9.38;;;5.30;64.60;;;;;;5130803;27;20188;-70
2023/02/06 11:54:27;;;;;;;10.18;6.97;;;5.40;65.00;;;;;;5132072;27;20191;-70
2023/02/06 11:57:03;;;;;;;9.75;7.60;;;5.40;64.10;;;;;;5131703;27;20291;-70
2023/02/06 11:59:33;;;;;;;10.57;7.20;;;5.40;63.80;;;;;;5132170;27;20573;-70
2023/02/06 12:02:05;;;;;;;13.48;10.63;;;5.40;64.50;;;;;;5133311;27;20203;-71
2023/02/06 12:04:38;;;;;;;11.70;7.10;;;5.40;65.30;;;;;;5130202;27;20248;-71
2023/02/06 12:07:12;;;;;;;9.57;7.57;;;5.40;63.50;;;;;;5129916;27;20201;-71
2023/02/06 12:09:40;;;;;;;11.07;6.20;;;5.50;63.00;;;;;;5128440;27;20192;-70
2023/02/06 12:12:18;;;;;;;8.23;5.90;;;5.60;63.90;;;;;;5132053;27;20223;-71
2023/02/06 12:14:51;;;;;;;7.63;6.38;;;5.60;64.50;;;;;;5132809;27;20223;-70
2023/02/06 12:17:26;;;;;;;11.65;6.75;;;5.70;63.90;;;;;;5131281;27;20195;-70
2023/02/06 12:20:01;;;;;;;7.78;6.03;;;5.60;63.90;;;;;;5131837;27;20246;-70
2023/02/06 12:22:34;;;;;;;8.73;6.18;;;5.60;64.10;;;;;;5131482;27;20187;-71
2023/02/06 12:25:03;;;;;;;11.02;7.40;;;5.60;63.50;;;;;;5131905;27;20236;-70
2023/02/06 12:27:35;;;;;;;8.30;5.55;;;5.50;62.30;;;;;;5131464;27;20599;-70
2023/02/06 12:30:08;;;;;;;8.93;5.45;;;5.50;62.50;;;;;;5131974;27;20244;-70
2023/02/06 12:32:42;;;;;;;9.05;6.63;;;5.40;62.90;;;;;;5127806;27;20191;-70
2023/02/06 12:35:20;;;;;;;7.80;6.18;;;5.40;62.50;;;;;;5128464;27;20187;-70
2023/02/06 12:37:54;;;;;;;8.38;6.38;;;5.40;62.70;;;;;;5129492;27;20205;-70
2023/02/06 12:40:33;;;;;;;11.82;7.68;;;5.30;62.60;;;;;;5130805;27;20223;-70
2023/02/06 12:43:03;;;;;;;11.38;7.28;;;5.30;62.50;;;;;;5132006;27;20346;-70
2023/02/06 12:45:39;;;;;;;11.55;7.28;;;5.20;61.70;;;;;;5131961;27;20219;-70
2023/02/06 12:48:15;;;;;;;12.82;7.70;;;5.20;62.10;;;;;;5130821;27;20283;-71
2023/02/06 12:50:48;;;;;;;13.55;7.45;;;5.20;62.20;;;;;;5125981;27;20656;-70
2023/02/06 12:53:18;;;;;;;8.55;6.20;;;5.20;61.30;;;;;;5130965;27;20634;-70
2023/02/06 12:55:53;;;;;;;12.07;8.30;;;5.20;62.00;;;;;;5128821;27;20229;-71
2023/02/06 12:58:28;;;;;;;14.32;8.40;;;5.30;62.20;;;;;;5130349;27;20244;-69
2023/02/06 13:01:23;;;;;;;9.18;6.50;;;5.30;61.60;;;;;;5128290;27;20252;-69
2023/02/06 13:03:56;;;;;;;8.73;6.68;;;5.30;62.60;;;;;;5129566;27;20230;-70
2023/02/06 13:06:26;;;;;;;9.15;5.63;;;5.40;62.00;;;;;;5131396;27;20290;-68
2023/02/06 13:08:56;;;;;;;7.78;6.15;;;5.40;60.90;;;;;;5131132;27;20204;-70
2023/02/06 13:11:30;;;;;;;8.52;6.60;;;5.50;60.30;;;;;;5130981;27;20313;-71